Thornton, United Kingdom

12:35 PM BST on April 01, 2015 (GMT +0100)
New Brighton | | Change Station
CLOSE
Current Station
Personal Weather Station
Location: Wallasey, MERSEYSIDE
Elevation: 95 ft
Nearby Weather Stations

Elev 95 ft 53.44 °N, 3.05 °W | Updated 50 seconds ago

Scattered Clouds
Scattered Clouds
48.9 °F
Feels Like 49 °F
N
0.0
Wind Variable Wind from North
Gusts 0.0 mph

Today
High -- | Low -- °F
--% Chance of Precip.
Yesterday
High -- | Low -- °F
Precip. -- in
6:46 AM 7:46 PM
Waxing Gibbous, 92% visible
Pressure 30.18 in
Visibility 6.2 miles
Clouds Few 1600 ft
Scattered Clouds 2400 ft
Windchill 49 °F
Dew Point 45 °F
Humidity 86%
Rainfall 0.00 in
Snow Depth Not available.
UV 4 out of 12
Pollen Not available.
Air Quality Not available.
Flu Activity Not available.
METAR EGGP 011120Z 27025KT 9999 FEW016 SCT024 08/04 Q1022

More Conditions Fewer Conditions

Pressure 30.18 in
Visibility 6.2 miles
Clouds Few 1600 ft
Scattered Clouds 2400 ft
Windchill 49 °F
Dew Point 45 °F
Humidity 86%
Rainfall 0.00 in
Snow Depth Not available.
UV 4 out of 12
Pollen Not available.
Air Quality Not available.
Flu Activity Not available.
METAR EGGP 011120Z 27025KT 9999 FEW016 SCT024 08/04 Q1022

More Conditions Fewer Conditions

10-Day Weather Forecast

Almanac

Astronomy

Apr. 01, 2015 Rise Set
Actual Time
Civil Twilight
Nautical Twilight
Astronomical Twilight
Moon
Length of Visible Light
Length of Day
Tomorrow will be .
, % of the Moon is Illuminated

Today's Extremes

Country Highs Country Lows

Community

WunderPhotos

Upload Photos

1,809,935 photos uploaded!

WunderBlogs® & News

Nearby

Air Quality

  Air Quality AQ Index Pollutant
Not available.

Snow Depth

Station Depth Elevation

Earthquake Activity

City Distance Mag. Time & Date
Minimum magnitude displayed is 2.5.

Coastal Water Temperatures

Place Temperature

Stations

Nearby Weather Stations

Station Location Temp. Windchill Dew Point Humidity Wind Precip. Elev Updated Type